This is the latest recevied weather packets stored in our database for station/object K6ALF. If no packets are shown the sender has not sent any weather packets the latest 10 day(s).
| Time | Temp. | Humidity | Pressure | Rain* | Wind** | Luminosity | Snow |
|---|---|---|---|---|---|---|---|
| 1777832121 | 16.11° C | 72% | 1012 hPa | 0 mm | - | - | - |
| 1777831221 | 16.11° C | 72% | 1012.3 hPa | 0 mm | - | - | - |
| 1777830321 | 16.11° C | 73% | 1012 hPa | 0 mm | - | - | - |
| 1777829421 | 15.56° C | 76% | 1012.1 hPa | 0 mm | - | - | - |
| 1777828554 | 15.56° C | 75% | 1011.9 hPa | 0 mm | - | - | - |
| 1777826723 | 15.56° C | 77% | 1011.7 hPa | 0 mm | - | - | - |
| 1777824021 | 14.44° C | 81% | 1011.6 hPa | 0 mm | - | - | - |
| 1777816824 | 12.78° C | 85% | 1010.2 hPa | 0 mm | - | - | - |
| 1777815955 | 12.22° C | 85% | 1010 hPa | 0 mm | - | - | - |
| 1777815022 | 12.22° C | 85% | 1009.9 hPa | 0 mm | - | - | - |
| 1777810521 | 12.22° C | 85% | 1009.3 hPa | 0 mm | - | - | - |
| 1777808723 | 12.78° C | 84% | 1009.3 hPa | 0 mm | - | - | - |
| 1777801521 | 13.33° C | 82% | 1009.3 hPa | 0 mm | - | - | - |
| 1777795221 | 13.89° C | 79% | 1010.1 hPa | 0 mm | - | - | - |
| 1777791653 | 14.44° C | 75% | 1010.4 hPa | 0 mm | - | - | - |
| 1777790720 | 15° C | 74% | 1010.3 hPa | 0 mm | - | - | - |
| 1777777253 | 20° C | 64% | 1009.2 hPa | 0 mm | - | - | - |
| 1777767354 | 25° C | 48% | 1009.1 hPa | 0 mm | - | - | - |
| 1777752922 | 20.56° C | 61% | 1011.8 hPa | 0 mm | - | - | - |
| 1777752023 | 21.11° C | 60% | 1011.8 hPa | 0 mm | - | - | - |
| 1777738554 | 17.22° C | 72% | 1011.9 hPa | 0 mm | - | - | - |
| 1777736721 | 16.67° C | 73% | 1011.8 hPa | 0 mm | - | - | - |
| 1777734924 | 15.56° C | 76% | 1011.6 hPa | 0 mm | - | - | - |
| 1777732223 | 14.44° C | 79% | 1011.6 hPa | 0 mm | - | - | - |
| 1777727754 | 13.33° C | 82% | 1010.9 hPa | 0 mm | - | - | - |
* Rain latest hour (hover to see other rain measurements)
** Current wind speed in m/s (hover to see current wind gust speed)